May 16, 2022

Time Code Weather Temp. Visibility Clouds Wind METAR/SPECI
5:50 am
V
52 °F 6¼ mi+ - 090°   090° 9 kt METAR EDWE 160350Z AUTO 09009KT 9999 // NCD 11/07 Q1016
5:20 am
V
52 °F 6¼ mi+ - 090°   090° 7 kt METAR EDWE 160320Z AUTO 09007KT 9999 // NCD 11/06 Q1016
4:50 am
V
52 °F 6¼ mi+ - 080°   080° 6 kt METAR EDWE 160250Z AUTO 08006KT 9999 // NCD 11/06 Q1016
4:20 am
V
52 °F 6¼ mi+ - 080°   080° 6 kt METAR EDWE 160220Z AUTO 08006KT 9999 // NCD 11/07 Q1017
3:50 am
V
52 °F 6¼ mi+ - 080°   080° 5 kt METAR EDWE 160150Z AUTO 08005KT 9999 // NCD 11/07 Q1017
3:20 am
V
54 °F 6¼ mi+ - 080°   080° 6 kt METAR EDWE 160120Z AUTO 08006KT 9999 // NCD 12/07 Q1017
2:50 am
V
54 °F 6¼ mi+ - 070°   070° 7 kt METAR EDWE 160050Z AUTO 07007KT 9999 // NCD 12/08 Q1017
2:20 am
V
54 °F 6¼ mi+ - 070°   070° 7 kt METAR EDWE 160020Z AUTO 07007KT 9999 // NCD 12/09 Q1017
1:50 am
V
54 °F 6¼ mi+ - 070°   070° 7 kt METAR EDWE 152350Z AUTO 07007KT 9999 // SCT200/// 12/09 Q1018
1:20 am
V
54 °F 6¼ mi+ - 070°   070° 7 kt METAR EDWE 152320Z AUTO 07007KT 9999 // FEW210/// 12/10 Q1018
12:50 am
V
52 °F 6¼ mi+ - 060°   060° 4 kt METAR EDWE 152250Z AUTO 06004KT 9999 // FEW210/// 11/09 Q1018
12:20 am
V
54 °F 6¼ mi+ - 060°   060° 5 kt METAR EDWE 152220Z AUTO 06005KT 9999 // NCD 12/10 Q1018

May 15, 2022

Time Code Weather Temp. Visibility Clouds Wind METAR/SPECI
11:50 pm
V
54 °F 6¼ mi+ - 060°   060° 6 kt METAR EDWE 152150Z AUTO 06006KT 9999 // NCD 12/10 Q1018
11:20 pm
V
54 °F 6¼ mi+ - 050°   050° 6 kt METAR EDWE 152120Z AUTO 05006KT 9999 // NCD 12/10 Q1018
10:50 pm
V
54 °F 6¼ mi+ - 060°   060° 6 kt METAR EDWE 152050Z AUTO 06006KT 9999 // NCD 12/10 Q1018
10:20 pm
V
55 °F 6¼ mi+ - 050°   050° 7 kt METAR EDWE 152020Z AUTO 05007KT 9999 // NCD 13/10 Q1019
9:50 pm
V
55 °F 6¼ mi+ - 050°   050° 9 kt METAR EDWE 151950Z AUTO 05009KT 9999 // FEW240/// 13/10 Q1018
9:20 pm
V
57 °F 6¼ mi+ - 050°   050° 8 kt METAR EDWE 151920Z AUTO 05008KT 9999 // NCD 14/09 Q1018
8:50 pm
V
57 °F 6¼ mi+ - 040°   040° 11 kt METAR EDWE 151850Z AUTO 04011KT 9999 // NCD 14/10 Q1019
Older data

Download our app

Easy access to all aviation weather on your mobile phone and tablet.
With many features not available on the website, like offline support and a personal airport list.